Remanso, Brazil
Current Conditions -  °F | °C
As of 9:00 AM on Sunday 23 Nov 2014 (Local Time) from SBPL Reporting Station
Broken Clouds Broken Clouds  
Wind Chill: 29°   Ceiling: 3000
Heat Index: 32°   Visibility: 6mi
Dew Point: 22°   Wind: 7mph
Humidity: 66%   Direction: 140°SE
Pressure: 29.97"   Gusts: NA
Location:  9.62°S, 42.08°W
Report Text: SBPL 231200Z 14006KT 9999 BKN030 29/22 Q1015
Loading
Personal Weather Stations






























Interactive Weather Map New forecast layout! Learn more

10-Day Weather Forecast

Advertisements
Track Severe Weather on mobile